createdAt,value
2022-09-10T00:02:10.362Z,75.80
2022-09-10T00:04:37.102Z,75.70
2022-09-10T00:07:03.983Z,75.90
2022-09-10T00:09:30.839Z,75.90
2022-09-10T00:11:58.167Z,75.90
2022-09-10T00:14:25.200Z,75.90
2022-09-10T00:16:52.218Z,75.90
2022-09-10T00:19:19.532Z,76.10
2022-09-10T00:21:46.957Z,76.10
2022-09-10T00:24:14.147Z,76.30
2022-09-10T00:26:41.435Z,76.30
2022-09-10T00:29:11.543Z,76.40
2022-09-10T00:31:39.852Z,76.30
2022-09-10T00:34:09.020Z,76.30
2022-09-10T00:36:42.020Z,76.50
2022-09-10T00:39:20.234Z,76.60
2022-09-10T00:41:48.687Z,76.70
2022-09-10T00:44:40.726Z,76.70
2022-09-10T00:47:12.897Z,76.70
2022-09-10T00:49:46.515Z,76.70
2022-09-10T00:52:14.001Z,76.70
2022-09-10T00:54:44.579Z,76.70
2022-09-10T00:57:17.071Z,76.80
2022-09-10T00:59:50.021Z,76.90
2022-09-10T01:02:16.948Z,76.80
2022-09-10T01:04:44.608Z,76.80
2022-09-10T01:07:13.625Z,76.80
2022-09-10T01:09:40.802Z,76.80
2022-09-10T01:12:34.318Z,76.80
2022-09-10T01:15:10.197Z,76.90
2022-09-10T01:17:49.483Z,76.60
2022-09-10T01:20:29.087Z,76.70
2022-09-10T01:23:04.260Z,76.70
2022-09-10T01:25:53.990Z,76.60
2022-09-10T01:28:35.961Z,76.60
2022-09-10T01:31:26.269Z,76.70
2022-09-10T01:34:05.222Z,76.70
2022-09-10T01:36:38.827Z,76.70
2022-09-10T01:39:06.084Z,76.60
2022-09-10T01:41:33.150Z,76.70
2022-09-10T01:44:11.589Z,76.80
2022-09-10T01:46:55.003Z,76.80
2022-09-10T01:49:38.589Z,76.90
2022-09-10T01:52:37.134Z,76.80
2022-09-10T01:55:33.040Z,77.00
2022-09-10T01:58:26.461Z,76.90
2022-09-10T02:01:27.988Z,77.00
2022-09-10T02:04:02.955Z,77.00
2022-09-10T02:06:33.604Z,77.00
2022-09-10T02:09:01.851Z,77.10
2022-09-10T02:11:29.447Z,77.20
2022-09-10T02:13:59.851Z,77.20
2022-09-10T02:16:58.773Z,77.30
2022-09-10T02:19:27.225Z,77.40
2022-09-10T02:21:56.797Z,77.40
2022-09-10T02:24:24.520Z,77.70
2022-09-10T02:26:51.626Z,77.70
2022-09-10T02:29:19.407Z,77.90
2022-09-10T02:31:47.427Z,77.80
2022-09-10T02:34:16.030Z,78.00
2022-09-10T02:36:45.690Z,78.00
2022-09-10T02:39:13.958Z,78.10
2022-09-10T02:41:41.504Z,78.10
2022-09-10T02:44:08.782Z,78.20
2022-09-10T02:46:36.871Z,78.10
2022-09-10T02:49:03.602Z,78.30
2022-09-10T02:51:34.280Z,78.40
2022-09-10T02:54:01.451Z,78.60
2022-09-10T02:56:28.428Z,78.60
2022-09-10T02:58:55.170Z,78.50
2022-09-10T03:01:23.160Z,78.50
2022-09-10T03:03:58.317Z,78.40
2022-09-10T03:06:26.679Z,78.40
2022-09-10T03:08:57.525Z,78.50
2022-09-10T03:11:27.429Z,78.50
2022-09-10T03:13:55.025Z,78.40
2022-09-10T03:16:24.215Z,78.40
2022-09-10T03:18:52.159Z,78.40
2022-09-10T03:21:21.338Z,78.30
2022-09-10T03:23:50.119Z,78.40
2022-09-10T03:26:23.748Z,78.60
2022-09-10T03:28:51.425Z,78.60
2022-09-10T03:31:20.125Z,78.70
2022-09-10T03:33:49.351Z,78.60
2022-09-10T03:36:18.064Z,78.60
2022-09-10T03:38:47.630Z,78.60
2022-09-10T03:41:15.149Z,78.60
2022-09-10T03:43:42.224Z,78.60
2022-09-10T03:46:12.074Z,78.60
2022-09-10T03:48:43.159Z,78.70
2022-09-10T03:51:10.993Z,78.80
2022-09-10T03:53:38.947Z,78.80
2022-09-10T03:56:07.280Z,78.80
2022-09-10T03:58:35.893Z,78.80
2022-09-10T04:01:04.037Z,78.80
2022-09-10T04:03:33.751Z,78.80
2022-09-10T04:06:00.688Z,78.80
2022-09-10T04:08:35.094Z,78.80
2022-09-10T04:11:03.056Z,78.90
2022-09-10T04:13:31.757Z,78.80
2022-09-10T04:16:02.613Z,78.80
2022-09-10T04:18:34.155Z,78.80
2022-09-10T04:21:02.273Z,78.80
2022-09-10T04:23:29.760Z,78.70
2022-09-10T04:25:57.135Z,78.70
2022-09-10T04:28:24.770Z,78.60
2022-09-10T04:30:52.137Z,78.50
2022-09-10T04:33:21.102Z,78.50
2022-09-10T04:35:48.061Z,78.60
2022-09-10T04:38:18.231Z,78.50
2022-09-10T04:40:47.662Z,78.60
2022-09-10T04:43:15.857Z,78.50
2022-09-10T04:45:43.801Z,78.50
2022-09-10T04:48:10.820Z,78.50
2022-09-10T04:50:53.989Z,78.50
2022-09-10T04:53:27.978Z,78.60
2022-09-10T04:55:57.260Z,78.80
2022-09-10T04:58:24.016Z,78.80
2022-09-10T05:00:51.251Z,78.80
2022-09-10T05:03:19.274Z,78.90
2022-09-10T05:05:48.007Z,79.00
2022-09-10T05:08:15.062Z,79.00
2022-09-10T05:10:47.291Z,79.10
2022-09-10T05:13:15.068Z,79.10
2022-09-10T05:15:42.567Z,79.10
2022-09-10T05:18:10.215Z,79.00
2022-09-10T05:20:38.622Z,79.10
2022-09-10T05:23:05.473Z,79.00
2022-09-10T05:25:34.507Z,79.00
2022-09-10T05:28:01.632Z,78.90
2022-09-10T05:30:32.807Z,78.90
2022-09-10T05:33:01.055Z,79.00
2022-09-10T05:35:30.486Z,78.90
2022-09-10T05:37:58.922Z,78.90
2022-09-10T05:40:25.843Z,79.00
2022-09-10T05:42:54.301Z,78.90
2022-09-10T05:45:23.425Z,79.00
2022-09-10T05:47:51.451Z,79.10
2022-09-10T05:50:21.861Z,79.10
2022-09-10T05:52:49.622Z,79.00
2022-09-10T05:55:17.411Z,79.10
2022-09-10T05:57:44.300Z,79.00
2022-09-10T06:00:15.704Z,78.90
2022-09-10T06:02:48.977Z,78.80
2022-09-10T06:05:36.843Z,78.90
2022-09-10T06:08:08.359Z,78.90
2022-09-10T06:10:38.609Z,78.80
2022-09-10T06:13:07.177Z,78.90
2022-09-10T06:15:35.683Z,78.90
2022-09-10T06:18:02.943Z,79.00
2022-09-10T06:20:31.043Z,78.90
2022-09-10T06:22:58.201Z,78.80
2022-09-10T06:25:25.051Z,78.80
2022-09-10T06:27:52.053Z,78.80
2022-09-10T06:30:20.767Z,78.80
2022-09-10T06:32:48.250Z,78.80
2022-09-10T06:35:15.689Z,78.80
2022-09-10T06:37:43.358Z,78.90
2022-09-10T06:40:12.080Z,78.90
2022-09-10T06:42:40.854Z,78.90
2022-09-10T06:45:18.524Z,78.70
2022-09-10T06:51:02.003Z,78.70
2022-09-10T06:53:33.673Z,78.70
2022-09-10T06:56:03.634Z,78.70
2022-09-10T06:58:36.320Z,78.60
2022-09-10T07:01:11.890Z,78.70
2022-09-10T07:03:39.394Z,78.80
2022-09-10T07:06:08.315Z,78.80
2022-09-10T07:08:35.303Z,78.60
2022-09-10T07:11:05.141Z,78.70
2022-09-10T07:13:32.119Z,78.70
2022-09-10T07:16:03.122Z,78.70
2022-09-10T07:18:31.050Z,78.70
2022-09-10T07:21:19.432Z,78.70
2022-09-10T07:23:51.920Z,78.60
2022-09-10T07:26:19.755Z,78.50
2022-09-10T07:28:52.351Z,78.50
2022-09-10T07:31:22.287Z,78.50
2022-09-10T07:33:50.865Z,78.30
2022-09-10T07:36:18.479Z,78.40
2022-09-10T07:38:47.966Z,78.20
2022-09-10T07:41:15.483Z,78.30
2022-09-10T07:43:44.343Z,78.50
2022-09-10T07:46:22.616Z,78.60
2022-09-10T07:48:58.939Z,78.60
2022-09-10T07:51:27.738Z,78.20
2022-09-10T07:53:58.558Z,77.80
2022-09-10T07:56:34.761Z,77.70
2022-09-10T07:59:03.892Z,77.40
2022-09-10T08:01:37.865Z,77.30
2022-09-10T08:04:06.254Z,77.00
2022-09-10T08:06:36.004Z,76.90
2022-09-10T08:09:07.116Z,76.90
2022-09-10T08:11:36.281Z,76.90
2022-09-10T08:14:03.815Z,76.70
2022-09-10T08:16:33.118Z,76.60
2022-09-10T08:19:06.077Z,76.50
2022-09-10T08:21:34.796Z,76.10
2022-09-10T08:24:02.667Z,76.10
2022-09-10T08:26:33.661Z,76.10
2022-09-10T08:29:02.892Z,75.90
2022-09-10T08:31:29.721Z,75.70
2022-09-10T08:34:05.571Z,75.40
2022-09-10T08:36:35.096Z,75.30
2022-09-10T08:39:06.287Z,75.20
2022-09-10T08:41:41.210Z,75.20
2022-09-10T08:44:27.750Z,75.00
2022-09-10T08:47:09.976Z,75.00
2022-09-10T08:49:48.876Z,75.00
2022-09-10T08:52:38.283Z,74.60
2022-09-10T08:55:17.258Z,74.70
2022-09-10T08:58:00.345Z,74.90
2022-09-10T09:00:34.840Z,74.90
2022-09-10T09:03:33.938Z,75.00
2022-09-10T09:06:02.805Z,75.00
2022-09-10T09:08:50.314Z,75.00
2022-09-10T09:11:34.405Z,75.50
2022-09-10T09:14:16.323Z,75.70
2022-09-10T09:17:06.224Z,75.10
2022-09-10T09:19:45.464Z,74.00
2022-09-10T09:22:19.408Z,74.10
2022-09-10T09:25:00.719Z,73.80
2022-09-10T09:27:32.151Z,73.50
2022-09-10T09:30:04.656Z,72.50
2022-09-10T09:32:39.842Z,71.70
2022-09-10T09:35:34.735Z,71.90
2022-09-10T09:38:06.954Z,71.60
2022-09-10T09:40:38.039Z,71.60
2022-09-10T09:43:27.642Z,71.30
2022-09-10T09:45:54.848Z,71.40
2022-09-10T09:48:23.772Z,70.70
2022-09-10T09:50:59.376Z,70.70
2022-09-10T09:53:28.671Z,70.40
2022-09-10T09:55:59.210Z,70.30
2022-09-10T09:58:27.267Z,69.90
2022-09-10T10:00:55.073Z,68.40
2022-09-10T10:03:28.476Z,67.50
2022-09-10T10:06:08.301Z,66.80
2022-09-10T10:08:41.479Z,66.80
2022-09-10T10:11:09.232Z,66.40
2022-09-10T10:13:39.249Z,66.60
2022-09-10T10:16:36.494Z,64.70
2022-09-10T10:19:04.794Z,63.70
2022-09-10T10:21:34.637Z,64.40
2022-09-10T10:24:01.903Z,64.80
2022-09-10T10:26:34.747Z,65.30
2022-09-10T10:29:18.500Z,65.60
2022-09-10T10:31:48.098Z,66.10
2022-09-10T10:34:37.839Z,66.50
2022-09-10T10:37:16.070Z,66.30
2022-09-10T10:40:01.184Z,66.60
2022-09-10T10:43:10.692Z,66.60
2022-09-10T10:45:56.081Z,66.70
2022-09-10T10:48:26.114Z,66.60
2022-09-10T10:51:03.225Z,66.10
2022-09-10T10:53:48.703Z,66.40
2022-09-10T10:56:32.712Z,66.60
2022-09-10T10:59:07.206Z,66.90
2022-09-10T11:01:42.260Z,66.80
2022-09-10T11:04:35.698Z,65.70
2022-09-10T11:07:32.813Z,64.00
2022-09-10T11:10:11.748Z,63.30
2022-09-10T11:13:07.139Z,63.10
2022-09-10T11:16:01.318Z,63.00
2022-09-10T11:18:38.453Z,62.70
2022-09-10T11:21:20.171Z,63.50
2022-09-10T11:24:03.387Z,63.80
2022-09-10T11:26:41.673Z,64.30
2022-09-10T11:29:11.561Z,63.20
2022-09-10T11:31:46.015Z,63.40
2022-09-10T11:34:28.517Z,62.20
2022-09-10T11:37:03.717Z,60.80
2022-09-10T11:39:40.483Z,59.50
2022-09-10T11:42:18.774Z,59.20
2022-09-10T11:45:19.589Z,59.00
2022-09-10T11:47:57.317Z,57.60
2022-09-10T11:50:34.288Z,57.00
2022-09-10T11:53:02.350Z,56.90
2022-09-10T11:56:03.588Z,57.10
2022-09-10T11:58:49.057Z,57.20
2022-09-10T12:01:54.090Z,56.80
2022-09-10T12:05:02.418Z,57.10
2022-09-10T12:08:20.174Z,57.10
2022-09-10T12:11:20.597Z,56.50
2022-09-10T12:13:50.081Z,56.40
2022-09-10T12:16:29.491Z,55.60
2022-09-10T12:18:58.520Z,54.50
2022-09-10T12:21:49.843Z,53.60
2022-09-10T12:24:29.379Z,54.10
2022-09-10T12:26:57.355Z,53.90
2022-09-10T12:29:37.440Z,53.60
2022-09-10T12:32:29.513Z,53.50
2022-09-10T12:35:38.036Z,53.40
2022-09-10T12:38:42.978Z,53.30
2022-09-10T12:41:14.480Z,52.90
2022-09-10T12:43:41.547Z,52.80
2022-09-10T12:46:14.976Z,52.10
2022-09-10T12:48:51.290Z,51.20
2022-09-10T12:51:18.036Z,50.80
2022-09-10T12:54:03.679Z,51.30
2022-09-10T12:56:45.708Z,50.60
2022-09-10T12:59:52.509Z,50.20
2022-09-10T13:02:36.589Z,49.10
2022-09-10T13:05:07.452Z,49.60
2022-09-10T13:07:41.687Z,50.00
2022-09-10T13:10:16.433Z,49.90
2022-09-10T13:12:49.430Z,49.80
2022-09-10T13:15:29.865Z,50.00
2022-09-10T13:17:56.729Z,49.70
2022-09-10T13:20:26.644Z,48.90
2022-09-10T13:23:04.020Z,47.80
2022-09-10T13:25:36.664Z,48.50
2022-09-10T13:28:35.645Z,48.20
2022-09-10T13:31:18.617Z,48.00
2022-09-10T13:33:54.351Z,47.80
2022-09-10T13:36:30.178Z,48.00
2022-09-10T13:39:35.361Z,47.90
2022-09-10T13:42:46.498Z,47.70
2022-09-10T13:45:33.826Z,46.80
2022-09-10T13:48:14.937Z,46.70
2022-09-10T13:51:08.414Z,46.70
2022-09-10T13:53:43.803Z,46.90
2022-09-10T13:56:38.798Z,47.00
2022-09-10T13:59:07.459Z,46.20
2022-09-10T14:01:53.820Z,45.90
2022-09-10T14:04:44.954Z,46.50
2022-09-10T14:07:22.780Z,47.20
2022-09-10T14:10:00.245Z,46.70
2022-09-10T14:12:29.906Z,46.80
2022-09-10T14:15:01.527Z,46.50
2022-09-10T14:17:43.085Z,46.80
2022-09-10T14:20:31.581Z,46.20
2022-09-10T14:23:10.537Z,46.30
2022-09-10T14:25:40.428Z,46.70
2022-09-10T14:28:16.191Z,46.20
2022-09-10T14:30:50.916Z,46.50
2022-09-10T14:33:31.608Z,46.30
2022-09-10T14:36:12.433Z,46.20
2022-09-10T14:38:42.135Z,46.50
2022-09-10T14:41:24.992Z,47.10
2022-09-10T14:44:24.040Z,47.50
2022-09-10T14:46:59.559Z,46.10
2022-09-10T14:49:30.731Z,45.40
2022-09-10T14:51:58.868Z,44.90
2022-09-10T14:54:27.434Z,45.50
2022-09-10T14:56:56.540Z,45.50
2022-09-10T14:59:32.255Z,46.20
2022-09-10T15:02:09.484Z,46.10
2022-09-10T15:04:46.186Z,46.40
2022-09-10T15:07:13.680Z,46.30
2022-09-10T15:09:41.155Z,47.00
2022-09-10T15:12:18.342Z,47.00
2022-09-10T15:14:45.089Z,46.90
2022-09-10T15:17:17.639Z,47.30
2022-09-10T15:19:46.859Z,46.90
2022-09-10T15:22:21.556Z,47.00
2022-09-10T15:25:08.625Z,46.90
2022-09-10T15:27:36.449Z,46.70
2022-09-10T15:30:03.422Z,46.90
2022-09-10T15:32:30.733Z,47.30
2022-09-10T15:34:57.632Z,47.60
2022-09-10T15:37:24.797Z,47.70
2022-09-10T15:39:52.758Z,47.60
2022-09-10T15:42:19.563Z,48.00
2022-09-10T15:44:46.535Z,48.00
2022-09-10T15:47:13.278Z,48.10
2022-09-10T15:49:40.077Z,47.80
2022-09-10T15:52:06.839Z,48.00
2022-09-10T15:54:34.413Z,47.80
2022-09-10T15:57:01.163Z,48.10
2022-09-10T15:59:28.802Z,48.80
2022-09-10T16:01:58.523Z,49.10
2022-09-10T16:04:26.060Z,49.00
2022-09-10T16:06:54.099Z,49.40
2022-09-10T16:09:20.884Z,49.60
2022-09-10T16:11:48.450Z,49.60
2022-09-10T16:14:18.723Z,50.00
2022-09-10T16:16:45.752Z,50.20
2022-09-10T16:19:13.306Z,50.70
2022-09-10T16:21:45.680Z,50.90
2022-09-10T16:24:12.821Z,50.20
2022-09-10T16:26:41.964Z,50.20
2022-09-10T16:29:19.530Z,50.40
2022-09-10T16:31:47.164Z,50.40
2022-09-10T16:34:19.852Z,50.50
2022-09-10T16:36:48.989Z,51.20
2022-09-10T16:39:16.699Z,51.40
2022-09-10T16:41:46.221Z,51.40
2022-09-10T16:44:15.758Z,51.60
2022-09-10T16:46:42.916Z,51.80
2022-09-10T16:49:15.155Z,52.00
2022-09-10T16:51:44.669Z,52.10
2022-09-10T16:54:14.010Z,52.40
2022-09-10T16:56:43.510Z,52.70
2022-09-10T16:59:16.167Z,53.00
2022-09-10T17:02:01.596Z,53.30
2022-09-10T17:04:44.454Z,53.50
2022-09-10T17:07:15.424Z,53.70
2022-09-10T17:09:55.427Z,53.80
2022-09-10T17:12:25.369Z,53.80
2022-09-10T17:14:52.330Z,54.10
2022-09-10T17:17:20.405Z,54.20
2022-09-10T17:19:47.452Z,54.40
2022-09-10T17:22:14.609Z,54.60
2022-09-10T17:24:42.146Z,54.60
2022-09-10T17:27:24.798Z,54.60
2022-09-10T17:29:59.643Z,54.90
2022-09-10T17:32:31.078Z,55.10
2022-09-10T17:35:00.377Z,55.20
2022-09-10T17:37:31.765Z,55.30
2022-09-10T17:40:03.644Z,55.40
2022-09-10T17:42:32.084Z,55.50
2022-09-10T17:45:01.098Z,55.60
2022-09-10T17:47:29.346Z,55.60
2022-09-10T17:49:56.402Z,55.80
2022-09-10T17:52:23.236Z,55.90
2022-09-10T17:54:52.250Z,56.30
2022-09-10T17:57:19.694Z,56.30
2022-09-10T17:59:46.549Z,56.40
2022-09-10T18:02:17.167Z,56.30
2022-09-10T18:04:48.153Z,56.50
2022-09-10T18:07:15.542Z,56.50
2022-09-10T18:09:42.854Z,56.50
2022-09-10T18:12:10.605Z,56.60
2022-09-10T18:14:38.500Z,56.80
2022-09-10T18:17:05.415Z,56.90
2022-09-10T18:19:33.174Z,57.10
2022-09-10T18:22:01.474Z,57.30
2022-09-10T18:24:28.595Z,57.40
2022-09-10T18:26:56.397Z,57.60
2022-09-10T18:29:29.979Z,57.50
2022-09-10T18:31:59.193Z,57.60
2022-09-10T18:34:28.444Z,57.80
2022-09-10T18:36:57.843Z,57.90
2022-09-10T18:39:26.851Z,58.00
2022-09-10T18:41:54.809Z,58.20
2022-09-10T18:44:27.555Z,58.50
2022-09-10T18:46:56.006Z,58.60
2022-09-10T18:49:24.768Z,58.60
2022-09-10T18:51:53.377Z,58.80
2022-09-10T18:54:22.109Z,58.90
2022-09-10T18:56:50.201Z,59.00
2022-09-10T18:59:23.045Z,59.20
2022-09-10T19:01:52.062Z,59.30
2022-09-10T19:04:24.383Z,59.30
2022-09-10T19:06:51.949Z,59.50
2022-09-10T19:09:27.350Z,59.60
2022-09-10T19:11:56.039Z,59.80
2022-09-10T19:14:34.534Z,60.00
2022-09-10T19:17:02.752Z,60.20
2022-09-10T19:19:31.959Z,60.20
2022-09-10T19:22:02.945Z,60.30
2022-09-10T19:24:53.373Z,60.40
2022-09-10T19:27:17.210Z,60.30
2022-09-10T19:29:44.978Z,60.40
2022-09-10T19:32:13.283Z,60.40
2022-09-10T19:34:40.450Z,60.50
2022-09-10T19:37:07.947Z,60.70
2022-09-10T19:39:35.073Z,60.80
2022-09-10T19:42:01.938Z,60.90
2022-09-10T19:44:28.784Z,61.20
2022-09-10T19:46:56.197Z,61.30
2022-09-10T19:49:22.958Z,61.30
2022-09-10T19:51:49.914Z,61.40
2022-09-10T19:54:16.693Z,61.50
2022-09-10T19:56:45.097Z,61.50
2022-09-10T19:59:17.139Z,61.50
2022-09-10T20:01:45.882Z,61.50
2022-09-10T20:04:14.182Z,61.30
2022-09-10T20:06:46.073Z,61.40
2022-09-10T20:09:14.137Z,61.50
2022-09-10T20:11:41.069Z,61.50
2022-09-10T20:14:14.329Z,61.50
2022-09-10T20:16:44.139Z,61.50
2022-09-10T20:19:13.735Z,61.40
2022-09-10T20:21:42.448Z,61.40
2022-09-10T20:24:09.792Z,61.50
2022-09-10T20:26:38.663Z,61.70
2022-09-10T20:29:12.387Z,61.80
2022-09-10T20:31:41.394Z,61.90
2022-09-10T20:34:14.435Z,61.90
2022-09-10T20:36:45.180Z,62.00
2022-09-10T20:39:15.199Z,62.00
2022-09-10T20:41:43.009Z,62.00
2022-09-10T20:44:13.575Z,62.00
2022-09-10T20:46:41.561Z,62.00
2022-09-10T20:49:10.599Z,62.10
2022-09-10T20:51:41.538Z,62.20
2022-09-10T20:54:11.877Z,62.20
2022-09-10T20:56:38.934Z,62.30
2022-09-10T20:59:05.679Z,62.40
2022-09-10T21:01:32.901Z,62.50
2022-09-10T21:04:01.318Z,62.50
2022-09-10T21:06:31.122Z,62.60
2022-09-10T21:08:58.671Z,62.60
2022-09-10T21:11:28.526Z,62.70
2022-09-10T21:13:59.431Z,62.70
2022-09-10T21:16:38.758Z,62.90
2022-09-10T21:19:09.483Z,63.00
2022-09-10T21:21:39.305Z,62.90
2022-09-10T21:24:17.737Z,63.00
2022-09-10T21:26:45.211Z,63.10
2022-09-10T21:29:17.242Z,63.20
2022-09-10T21:31:45.323Z,63.40
2022-09-10T21:34:12.884Z,63.50
2022-09-10T21:36:43.822Z,63.70
2022-09-10T21:39:16.590Z,63.70
2022-09-10T21:41:48.796Z,63.80
2022-09-10T21:44:23.111Z,63.90
2022-09-10T21:46:50.897Z,64.00
2022-09-10T21:49:19.049Z,63.90
2022-09-10T21:51:46.221Z,64.00
2022-09-10T21:54:21.309Z,64.00
2022-09-10T21:56:49.450Z,64.00
2022-09-10T21:59:16.902Z,64.10
2022-09-10T22:01:45.298Z,64.30
2022-09-10T22:04:13.506Z,64.40
2022-09-10T22:06:40.476Z,64.60
2022-09-10T22:09:09.992Z,64.60
2022-09-10T22:11:40.589Z,64.60
2022-09-10T22:14:20.887Z,64.70
2022-09-10T22:16:47.987Z,64.80
2022-09-10T22:19:18.210Z,64.80
2022-09-10T22:21:45.481Z,64.80
2022-09-10T22:24:13.519Z,64.80
2022-09-10T22:26:43.280Z,64.90
2022-09-10T22:29:12.129Z,65.00
2022-09-10T22:31:38.984Z,65.10
2022-09-10T22:34:09.736Z,65.20
2022-09-10T22:36:38.545Z,65.40
2022-09-10T22:39:08.024Z,65.40
2022-09-10T22:41:36.251Z,65.40
2022-09-10T22:44:03.834Z,65.40
2022-09-10T22:46:31.096Z,65.30
2022-09-10T22:48:58.174Z,65.50
2022-09-10T22:51:30.499Z,65.60
2022-09-10T22:53:58.291Z,65.70
2022-09-10T22:56:26.893Z,65.70
2022-09-10T22:58:55.795Z,65.80
2022-09-10T23:01:31.838Z,65.90
2022-09-10T23:04:00.231Z,66.10
2022-09-10T23:06:29.644Z,66.00
2022-09-10T23:09:08.294Z,66.10
2022-09-10T23:11:36.889Z,66.40
2022-09-10T23:14:16.617Z,66.40
2022-09-10T23:16:44.779Z,66.60
2022-09-10T23:19:14.114Z,66.50
2022-09-10T23:21:46.774Z,66.50
2022-09-10T23:24:15.817Z,66.60
2022-09-10T23:26:43.010Z,66.60
2022-09-10T23:29:09.770Z,66.60
2022-09-10T23:31:38.044Z,66.60
2022-09-10T23:34:13.950Z,66.50
2022-09-10T23:36:43.213Z,66.60
2022-09-10T23:39:16.327Z,66.50
2022-09-10T23:41:43.235Z,66.60
2022-09-10T23:44:10.380Z,66.50
2022-09-10T23:46:37.515Z,66.50
2022-09-10T23:49:04.982Z,66.50
2022-09-10T23:51:31.969Z,66.50
2022-09-10T23:53:59.471Z,66.50
2022-09-10T23:56:28.303Z,66.50
2022-09-10T23:58:56.056Z,66.50
